createdAt,value
2023-05-02T00:01:44.327Z,61.65
2023-05-02T00:04:11.774Z,61.72
2023-05-02T00:06:38.958Z,62.03
2023-05-02T00:09:06.109Z,62.81
2023-05-02T00:11:33.133Z,62.73
2023-05-02T00:14:00.237Z,63.43
2023-05-02T00:16:27.492Z,62.68
2023-05-02T00:18:54.557Z,62.84
2023-05-02T00:21:22.078Z,63.22
2023-05-02T00:23:51.427Z,63.21
2023-05-02T00:26:18.423Z,62.97
2023-05-02T00:28:46.876Z,62.92
2023-05-02T00:31:14.112Z,62.98
2023-05-02T00:33:41.274Z,63.32
2023-05-02T00:36:16.085Z,63.68
2023-05-02T00:38:43.689Z,64.48
2023-05-02T00:41:10.989Z,64.21
2023-05-02T00:43:39.685Z,64.68
2023-05-02T00:46:07.995Z,64.66
2023-05-02T00:48:35.992Z,64.64
2023-05-02T00:51:05.453Z,64.67
2023-05-02T00:53:33.009Z,64.35
2023-05-02T00:56:00.024Z,64.93
2023-05-02T00:58:28.185Z,64.44
2023-05-02T01:01:24.734Z,64.77
2023-05-02T01:04:08.870Z,65.00
2023-05-02T01:06:42.094Z,64.70
2023-05-02T01:09:39.999Z,64.89
2023-05-02T01:12:17.033Z,65.04
2023-05-02T01:14:51.011Z,65.14
2023-05-02T01:17:21.449Z,65.29
2023-05-02T01:19:54.499Z,65.38
2023-05-02T01:22:24.808Z,65.90
2023-05-02T01:25:01.186Z,65.74
2023-05-02T01:27:39.832Z,65.94
2023-05-02T01:30:08.326Z,66.16
2023-05-02T01:32:38.913Z,66.42
2023-05-02T01:35:08.777Z,66.79
2023-05-02T01:37:38.333Z,67.47
2023-05-02T01:40:10.710Z,67.41
2023-05-02T01:42:40.408Z,67.68
2023-05-02T01:45:11.255Z,67.89
2023-05-02T01:47:40.955Z,67.81
2023-05-02T01:50:11.677Z,67.91
2023-05-02T01:52:40.995Z,68.03
2023-05-02T01:55:11.489Z,68.82
2023-05-02T01:57:42.422Z,68.04
2023-05-02T02:00:10.739Z,68.02
2023-05-02T02:02:42.877Z,69.23
2023-05-02T02:05:12.419Z,69.88
2023-05-02T02:07:39.545Z,70.59
2023-05-02T02:10:07.289Z,71.19
2023-05-02T02:12:43.931Z,70.86
2023-05-02T02:15:20.218Z,71.16
2023-05-02T02:17:58.733Z,71.22
2023-05-02T02:20:28.483Z,71.57
2023-05-02T02:22:57.926Z,71.30
2023-05-02T02:25:27.011Z,71.00
2023-05-02T02:27:54.680Z,71.19
2023-05-02T02:30:22.083Z,71.10
2023-05-02T02:32:49.132Z,71.04
2023-05-02T02:35:16.285Z,71.11
2023-05-02T02:38:00.974Z,71.26
2023-05-02T02:40:34.705Z,71.26
2023-05-02T02:43:36.543Z,71.62
2023-05-02T02:46:17.092Z,71.76
2023-05-02T02:48:56.670Z,72.14
2023-05-02T02:51:32.970Z,72.21
2023-05-02T02:54:29.550Z,72.88
2023-05-02T02:57:10.472Z,72.50
2023-05-02T02:59:45.268Z,72.45
2023-05-02T03:02:17.395Z,72.70
2023-05-02T03:04:47.097Z,72.97
2023-05-02T03:07:14.377Z,73.14
2023-05-02T03:09:48.555Z,72.68
2023-05-02T03:12:21.274Z,72.23
2023-05-02T03:14:50.134Z,72.05
2023-05-02T03:17:17.897Z,72.19
2023-05-02T03:19:45.989Z,71.66
2023-05-02T03:22:13.184Z,72.18
2023-05-02T03:24:40.613Z,71.77
2023-05-02T03:27:08.768Z,71.79
2023-05-02T03:29:41.084Z,71.24
2023-05-02T03:32:09.478Z,70.99
2023-05-02T03:34:38.042Z,70.78
2023-05-02T03:37:05.335Z,70.23
2023-05-02T03:39:32.789Z,70.75
2023-05-02T03:41:59.970Z,70.86
2023-05-02T03:44:27.139Z,70.19
2023-05-02T03:46:54.242Z,70.39
2023-05-02T03:49:22.007Z,70.62
2023-05-02T03:51:52.266Z,70.87
2023-05-02T03:54:24.852Z,70.80
2023-05-02T03:56:56.460Z,71.47
2023-05-02T03:59:28.926Z,71.68
2023-05-02T04:01:56.722Z,71.60
2023-05-02T04:04:33.105Z,71.29
2023-05-02T04:07:01.499Z,71.80
2023-05-02T04:09:29.525Z,71.75
2023-05-02T04:12:02.304Z,71.26
2023-05-02T04:14:30.881Z,71.55
2023-05-02T04:16:58.964Z,71.13
2023-05-02T04:19:39.644Z,70.94
2023-05-02T04:22:06.943Z,70.83
2023-05-02T04:24:37.832Z,71.24
2023-05-02T04:27:04.802Z,74.77
2023-05-02T04:29:32.727Z,70.39
2023-05-02T04:32:00.263Z,68.10
2023-05-02T04:34:29.274Z,68.32
2023-05-02T04:36:56.360Z,67.63
2023-05-02T04:39:25.534Z,67.84
2023-05-02T04:42:10.006Z,68.10
2023-05-02T04:44:43.972Z,68.37
2023-05-02T04:47:12.210Z,69.47
2023-05-02T04:49:39.364Z,69.14
2023-05-02T04:52:06.707Z,69.61
2023-05-02T04:54:34.837Z,70.73
2023-05-02T04:57:03.642Z,69.71
2023-05-02T04:59:33.268Z,69.72
2023-05-02T05:02:02.704Z,69.47
2023-05-02T05:04:29.903Z,68.71
2023-05-02T05:06:57.145Z,69.17
2023-05-02T05:09:26.883Z,68.97
2023-05-02T05:11:54.162Z,68.50
2023-05-02T05:14:22.068Z,68.91
2023-05-02T05:16:52.596Z,68.96
2023-05-02T05:19:20.235Z,69.25
2023-05-02T05:21:47.299Z,69.19
2023-05-02T05:24:17.402Z,68.77
2023-05-02T05:26:44.815Z,70.25
2023-05-02T05:29:11.903Z,69.22
2023-05-02T05:31:41.933Z,70.83
2023-05-02T05:34:10.986Z,70.17
2023-05-02T05:36:40.514Z,69.69
2023-05-02T05:39:07.882Z,70.80
2023-05-02T05:41:38.344Z,71.34
2023-05-02T05:44:08.474Z,71.17
2023-05-02T05:46:35.778Z,70.78
2023-05-02T05:49:04.170Z,71.18
2023-05-02T05:51:31.663Z,74.14
2023-05-02T05:54:00.137Z,72.56
2023-05-02T05:56:28.275Z,71.42
2023-05-02T05:59:02.134Z,70.79
2023-05-02T06:01:29.270Z,71.00
2023-05-02T06:03:56.820Z,70.28
2023-05-02T06:06:24.197Z,70.66
2023-05-02T06:08:51.281Z,69.99
2023-05-02T06:11:18.392Z,69.71
2023-05-02T06:13:45.618Z,70.11
2023-05-02T06:16:12.999Z,69.30
2023-05-02T06:18:40.311Z,67.52
2023-05-02T06:21:07.738Z,67.98
2023-05-02T06:23:36.767Z,67.98
2023-05-02T06:26:05.014Z,67.64
2023-05-02T06:28:32.262Z,68.88
2023-05-02T06:31:04.179Z,67.54
2023-05-02T06:33:32.984Z,67.26
2023-05-02T06:36:01.914Z,67.85
2023-05-02T06:38:30.047Z,67.91
2023-05-02T06:40:57.272Z,67.37
2023-05-02T06:43:24.464Z,67.15
2023-05-02T06:45:56.456Z,66.90
2023-05-02T06:48:23.694Z,65.49
2023-05-02T06:50:53.616Z,65.73
2023-05-02T06:53:20.939Z,65.89
2023-05-02T06:55:49.202Z,66.05
2023-05-02T06:58:16.461Z,65.22
2023-05-02T07:00:43.760Z,65.16
2023-05-02T07:03:13.885Z,64.92
2023-05-02T07:05:41.393Z,65.73
2023-05-02T07:08:09.316Z,64.82
2023-05-02T07:10:36.721Z,64.59
2023-05-02T07:13:03.915Z,64.51
2023-05-02T07:15:31.145Z,63.14
2023-05-02T07:17:58.421Z,63.09
2023-05-02T07:20:25.814Z,63.00
2023-05-02T07:22:52.963Z,62.14
2023-05-02T07:25:20.093Z,61.58
2023-05-02T07:27:47.187Z,62.19
2023-05-02T07:30:14.284Z,61.70
2023-05-02T07:32:41.376Z,61.16
2023-05-02T07:35:09.100Z,61.16
2023-05-02T07:37:36.934Z,60.76
2023-05-02T07:40:04.827Z,60.43
2023-05-02T07:42:33.116Z,60.31
2023-05-02T07:45:00.346Z,60.06
2023-05-02T07:47:27.764Z,59.33
2023-05-02T07:49:56.077Z,59.89
2023-05-02T07:52:23.288Z,59.41
2023-05-02T07:54:51.270Z,59.79
2023-05-02T07:57:18.958Z,59.63
2023-05-02T07:59:45.988Z,58.70
2023-05-02T08:02:14.236Z,58.17
2023-05-02T08:04:41.689Z,58.06
2023-05-02T08:07:09.025Z,55.83
2023-05-02T08:09:36.110Z,57.07
2023-05-02T08:12:03.529Z,57.07
2023-05-02T08:14:31.671Z,55.85
2023-05-02T08:16:59.390Z,54.37
2023-05-02T08:19:26.942Z,55.56
2023-05-02T08:21:54.877Z,55.04
2023-05-02T08:24:22.439Z,53.86
2023-05-02T08:26:49.536Z,53.75
2023-05-02T08:29:17.095Z,53.88
2023-05-02T08:31:44.536Z,53.18
2023-05-02T08:34:11.737Z,52.13
2023-05-02T08:36:38.873Z,52.65
2023-05-02T08:39:08.274Z,51.59
2023-05-02T08:41:35.687Z,51.45
2023-05-02T08:44:04.109Z,50.09
2023-05-02T08:46:32.639Z,50.07
2023-05-02T08:49:00.790Z,49.01
2023-05-02T08:51:32.910Z,49.11
2023-05-02T08:54:02.238Z,47.61
2023-05-02T08:56:29.618Z,47.90
2023-05-02T08:58:56.639Z,48.90
2023-05-02T09:01:24.643Z,48.58
2023-05-02T09:03:52.610Z,46.44
2023-05-02T09:06:22.004Z,45.78
2023-05-02T09:08:52.590Z,45.06
2023-05-02T09:11:21.776Z,42.58
2023-05-02T09:13:52.864Z,43.75
2023-05-02T09:16:25.893Z,41.51
2023-05-02T09:18:55.905Z,39.24
2023-05-02T09:21:27.697Z,39.59
2023-05-02T09:23:57.060Z,38.39
2023-05-02T09:26:31.944Z,37.47
2023-05-02T09:29:04.256Z,37.06
2023-05-02T09:34:16.793Z,36.97
2023-05-02T09:36:46.725Z,36.81
2023-05-02T09:39:16.590Z,36.98
2023-05-02T09:41:48.339Z,36.57
2023-05-02T09:44:18.545Z,35.41
2023-05-02T09:46:48.630Z,34.11
2023-05-02T09:49:19.076Z,33.84
2023-05-02T09:51:48.080Z,33.41
2023-05-02T09:54:37.462Z,34.13
2023-05-02T09:57:07.310Z,34.60
2023-05-02T09:59:34.620Z,34.41
2023-05-02T10:02:05.546Z,34.29
2023-05-02T10:04:34.519Z,34.47
2023-05-02T10:07:03.013Z,34.20
2023-05-02T10:09:32.919Z,33.72
2023-05-02T10:12:08.397Z,33.83
2023-05-02T10:14:46.320Z,34.27
2023-05-02T10:17:22.347Z,33.59
2023-05-02T10:19:59.383Z,32.99
2023-05-02T10:22:27.151Z,33.32
2023-05-02T10:24:55.288Z,33.50
2023-05-02T10:27:22.630Z,33.05
2023-05-02T10:29:51.975Z,32.91
2023-05-02T10:32:19.304Z,33.13
2023-05-02T10:34:47.872Z,33.32
2023-05-02T10:37:16.994Z,33.60
2023-05-02T10:39:44.141Z,33.08
2023-05-02T10:42:11.609Z,32.93
2023-05-02T10:44:41.365Z,33.36
2023-05-02T10:47:25.443Z,33.35
2023-05-02T10:50:01.701Z,32.73
2023-05-02T10:52:35.936Z,32.91
2023-05-02T10:55:20.060Z,32.81
2023-05-02T10:58:22.838Z,32.01
2023-05-02T11:00:50.098Z,32.78
2023-05-02T11:03:53.917Z,32.53
2023-05-02T11:06:21.040Z,30.94
2023-05-02T11:08:48.307Z,31.47
2023-05-02T11:11:44.254Z,31.43
2023-05-02T11:14:14.387Z,31.01
2023-05-02T11:17:00.158Z,31.02
2023-05-02T11:19:53.861Z,31.22
2023-05-02T11:22:20.996Z,31.42
2023-05-02T11:24:49.238Z,31.91
2023-05-02T11:27:38.275Z,31.95
2023-05-02T11:30:09.900Z,31.75
2023-05-02T11:32:47.466Z,32.44
2023-05-02T11:35:21.608Z,31.98
2023-05-02T11:37:59.876Z,31.89
2023-05-02T11:40:28.383Z,31.88
2023-05-02T11:42:56.485Z,31.24
2023-05-02T11:45:34.226Z,31.42
2023-05-02T11:48:01.516Z,31.31
2023-05-02T11:50:30.480Z,31.85
2023-05-02T11:52:57.824Z,31.86
2023-05-02T11:55:25.167Z,31.60
2023-05-02T11:57:52.397Z,31.35
2023-05-02T12:00:19.816Z,30.69
2023-05-02T12:02:47.983Z,30.91
2023-05-02T12:05:15.832Z,30.39
2023-05-02T12:07:49.059Z,30.30
2023-05-02T12:10:16.163Z,31.13
2023-05-02T12:12:44.565Z,31.27
2023-05-02T12:15:12.887Z,30.62
2023-05-02T12:17:46.154Z,31.03
2023-05-02T12:20:13.422Z,30.42
2023-05-02T12:22:40.676Z,30.70
2023-05-02T12:25:08.724Z,30.61
2023-05-02T12:27:36.179Z,30.53
2023-05-02T12:30:05.877Z,29.69
2023-05-02T12:32:35.299Z,29.55
2023-05-02T12:35:04.004Z,29.83
2023-05-02T12:37:31.966Z,29.04
2023-05-02T12:39:59.709Z,29.51
2023-05-02T12:42:27.354Z,29.59
2023-05-02T12:44:54.797Z,29.42
2023-05-02T12:47:25.229Z,29.41
2023-05-02T12:49:53.568Z,29.64
2023-05-02T12:52:41.603Z,29.92
2023-05-02T12:55:18.318Z,30.13
2023-05-02T12:57:46.129Z,30.03
2023-05-02T13:00:16.620Z,29.90
2023-05-02T13:02:43.798Z,30.32
2023-05-02T13:05:29.122Z,30.14
2023-05-02T13:07:59.426Z,29.83
2023-05-02T13:10:27.961Z,29.96
2023-05-02T13:12:55.707Z,30.04
2023-05-02T13:15:22.857Z,29.38
2023-05-02T13:17:52.050Z,28.95
2023-05-02T13:20:19.503Z,29.45
2023-05-02T13:22:46.599Z,29.17
2023-05-02T13:25:13.674Z,29.45
2023-05-02T13:27:41.386Z,29.71
2023-05-02T13:30:10.192Z,29.37
2023-05-02T13:32:37.786Z,29.74
2023-05-02T13:35:05.472Z,29.18
2023-05-02T13:37:32.752Z,29.14
2023-05-02T13:40:00.303Z,29.83
2023-05-02T13:42:27.620Z,29.42
2023-05-02T13:44:54.807Z,28.86
2023-05-02T13:47:22.597Z,29.06
2023-05-02T13:49:49.879Z,29.25
2023-05-02T13:52:16.968Z,29.05
2023-05-02T13:54:44.052Z,29.43
2023-05-02T13:57:12.134Z,28.74
2023-05-02T13:59:39.360Z,29.37
2023-05-02T14:02:06.643Z,29.08
2023-05-02T14:04:33.789Z,29.65
2023-05-02T14:07:01.289Z,29.72
2023-05-02T14:09:28.554Z,29.58
2023-05-02T14:11:55.989Z,29.31
2023-05-02T14:14:23.047Z,28.84
2023-05-02T14:16:50.608Z,28.45
2023-05-02T14:19:18.208Z,28.83
2023-05-02T14:21:45.470Z,29.10
2023-05-02T14:24:13.024Z,29.32
2023-05-02T14:26:40.097Z,29.38
2023-05-02T14:29:07.281Z,29.52
2023-05-02T14:31:34.529Z,29.67
2023-05-02T14:34:01.712Z,30.18
2023-05-02T14:36:28.794Z,30.25
2023-05-02T14:38:55.715Z,30.57
2023-05-02T14:41:24.232Z,30.61
2023-05-02T14:43:52.634Z,30.23
2023-05-02T14:46:19.778Z,30.32
2023-05-02T14:48:46.994Z,30.05
2023-05-02T14:51:14.066Z,30.64
2023-05-02T14:53:41.381Z,30.41
2023-05-02T14:56:13.179Z,30.51
2023-05-02T14:58:40.241Z,30.46
2023-05-02T15:01:07.386Z,30.11
2023-05-02T15:03:36.401Z,30.01
2023-05-02T15:06:08.984Z,30.38
2023-05-02T15:08:37.318Z,30.30
2023-05-02T15:11:04.386Z,30.25
2023-05-02T15:13:31.610Z,29.53
2023-05-02T15:15:58.687Z,29.94
2023-05-02T15:18:25.792Z,29.85
2023-05-02T15:20:52.920Z,29.34
2023-05-02T15:23:19.900Z,29.67
2023-05-02T15:25:47.595Z,29.83
2023-05-02T15:28:14.641Z,29.73
2023-05-02T15:30:41.947Z,30.01
2023-05-02T15:33:09.436Z,30.46
2023-05-02T15:35:37.025Z,30.15
2023-05-02T15:38:04.172Z,29.80
2023-05-02T15:40:31.297Z,29.92
2023-05-02T15:42:58.363Z,29.66
2023-05-02T15:45:25.622Z,30.05
2023-05-02T15:47:52.964Z,30.01
2023-05-02T15:50:20.017Z,29.78
2023-05-02T15:52:47.583Z,29.60
2023-05-02T15:55:14.792Z,29.30
2023-05-02T15:57:41.943Z,29.38
2023-05-02T16:00:16.099Z,29.62
2023-05-02T16:02:43.105Z,29.83
2023-05-02T16:05:10.197Z,29.46
2023-05-02T16:07:38.756Z,29.63
2023-05-02T16:10:07.744Z,29.49
2023-05-02T16:12:34.984Z,29.52
2023-05-02T16:15:03.996Z,29.89
2023-05-02T16:17:31.513Z,29.75
2023-05-02T16:19:58.804Z,30.18
2023-05-02T16:22:27.894Z,30.14
2023-05-02T16:24:56.221Z,30.65
2023-05-02T16:27:24.565Z,30.70
2023-05-02T16:29:51.668Z,30.76
2023-05-02T16:32:19.098Z,30.93
2023-05-02T16:34:46.318Z,31.04
2023-05-02T16:37:13.855Z,31.17
2023-05-02T16:39:40.929Z,31.27
2023-05-02T16:42:08.099Z,31.31
2023-05-02T16:44:35.611Z,31.28
2023-05-02T16:47:02.882Z,31.46
2023-05-02T16:49:30.045Z,31.45
2023-05-02T16:51:57.785Z,31.62
2023-05-02T16:54:25.425Z,31.84
2023-05-02T16:56:52.486Z,31.96
2023-05-02T16:59:19.610Z,31.86
2023-05-02T17:01:46.775Z,31.58
2023-05-02T17:04:13.895Z,31.86
2023-05-02T17:06:41.214Z,32.05
2023-05-02T17:09:08.411Z,32.21
2023-05-02T17:11:36.355Z,31.84
2023-05-02T17:14:03.476Z,32.28
2023-05-02T17:16:30.639Z,32.03
2023-05-02T17:18:57.790Z,32.20
2023-05-02T17:21:25.001Z,32.37
2023-05-02T17:23:52.215Z,32.69
2023-05-02T17:26:19.438Z,32.76
2023-05-02T17:28:46.519Z,32.88
2023-05-02T17:31:13.704Z,33.18
2023-05-02T17:33:42.353Z,33.33
2023-05-02T17:36:09.819Z,33.63
2023-05-02T17:38:36.994Z,33.83
2023-05-02T17:41:04.207Z,33.73
2023-05-02T17:43:31.454Z,34.09
2023-05-02T17:45:58.544Z,34.24
2023-05-02T17:48:25.687Z,34.25
2023-05-02T17:50:53.531Z,34.51
2023-05-02T17:53:20.629Z,34.70
2023-05-02T17:55:47.740Z,34.92
2023-05-02T17:58:15.923Z,35.18
2023-05-02T18:00:43.747Z,35.54
2023-05-02T18:03:10.991Z,36.13
2023-05-02T18:05:39.680Z,37.14
2023-05-02T18:08:09.947Z,37.64
2023-05-02T18:10:37.989Z,37.92
2023-05-02T18:13:05.171Z,38.65
2023-05-02T18:15:32.282Z,39.08
2023-05-02T18:17:59.326Z,39.28
2023-05-02T18:20:26.512Z,39.54
2023-05-02T18:22:57.369Z,39.57
2023-05-02T18:25:24.515Z,39.57
2023-05-02T18:27:51.566Z,39.24
2023-05-02T18:30:20.193Z,38.86
2023-05-02T18:32:47.439Z,38.80
2023-05-02T18:35:14.556Z,38.34
2023-05-02T18:37:41.679Z,38.21
2023-05-02T18:40:09.142Z,38.10
2023-05-02T18:42:36.438Z,38.06
2023-05-02T18:45:05.558Z,38.08
2023-05-02T18:47:33.863Z,37.93
2023-05-02T18:50:01.317Z,38.08
2023-05-02T18:52:30.823Z,38.19
2023-05-02T18:54:57.894Z,38.40
2023-05-02T18:57:25.447Z,38.40
2023-05-02T18:59:52.511Z,38.67
2023-05-02T19:02:19.724Z,38.86
2023-05-02T19:04:46.910Z,38.80
2023-05-02T19:07:14.587Z,38.78
2023-05-02T19:09:41.643Z,38.84
2023-05-02T19:12:08.667Z,38.86
2023-05-02T19:14:39.808Z,38.96
2023-05-02T19:17:07.044Z,38.96
2023-05-02T19:19:34.179Z,39.09
2023-05-02T19:22:01.241Z,39.23
2023-05-02T19:24:29.352Z,39.71
2023-05-02T19:26:56.568Z,39.85
2023-05-02T19:29:23.706Z,39.68
2023-05-02T19:31:50.884Z,39.91
2023-05-02T19:34:18.346Z,39.97
2023-05-02T19:36:45.684Z,39.73
2023-05-02T19:39:13.387Z,40.08
2023-05-02T19:41:42.556Z,39.80
2023-05-02T19:44:09.880Z,39.94
2023-05-02T19:46:37.125Z,40.07
2023-05-02T19:49:04.283Z,40.33
2023-05-02T19:51:33.929Z,40.20
2023-05-02T19:54:01.120Z,40.38
2023-05-02T19:56:28.899Z,40.48
2023-05-02T19:58:59.511Z,40.83
2023-05-02T20:01:29.314Z,41.05
2023-05-02T20:03:56.646Z,41.08
2023-05-02T20:06:23.960Z,41.10
2023-05-02T20:08:52.515Z,40.86
2023-05-02T20:11:19.832Z,41.11
2023-05-02T20:13:47.026Z,41.23
2023-05-02T20:16:15.136Z,41.78
2023-05-02T20:18:42.282Z,41.82
2023-05-02T20:21:09.401Z,41.89
2023-05-02T20:23:36.595Z,41.89
2023-05-02T20:26:03.751Z,41.51
2023-05-02T20:28:30.867Z,42.35
2023-05-02T20:30:58.076Z,42.19
2023-05-02T20:33:27.522Z,42.25
2023-05-02T20:35:57.407Z,42.07
2023-05-02T20:38:24.417Z,42.50
2023-05-02T20:40:51.582Z,42.49
2023-05-02T20:43:23.158Z,42.40
2023-05-02T20:45:50.279Z,42.52
2023-05-02T20:48:18.286Z,43.06
2023-05-02T20:50:54.796Z,43.37
2023-05-02T20:53:23.928Z,43.00
2023-05-02T20:55:51.381Z,43.51
2023-05-02T20:58:18.494Z,43.66
2023-05-02T21:00:52.238Z,43.40
2023-05-02T21:03:22.343Z,43.76
2023-05-02T21:05:53.630Z,44.24
2023-05-02T21:08:21.317Z,44.06
2023-05-02T21:10:48.677Z,44.19
2023-05-02T21:13:15.863Z,44.56
2023-05-02T21:15:43.080Z,44.39
2023-05-02T21:18:10.170Z,44.84
2023-05-02T21:20:38.373Z,44.64
2023-05-02T21:23:05.836Z,44.38
2023-05-02T21:25:32.989Z,44.94
2023-05-02T21:28:00.250Z,44.85
2023-05-02T21:30:27.416Z,44.70
2023-05-02T21:32:54.580Z,45.08
2023-05-02T21:35:21.767Z,45.07
2023-05-02T21:37:48.927Z,45.41
2023-05-02T21:40:16.099Z,45.96
2023-05-02T21:42:43.249Z,45.95
2023-05-02T21:45:11.324Z,46.52
2023-05-02T21:47:38.472Z,46.79
2023-05-02T21:50:06.097Z,46.94
2023-05-02T21:52:33.370Z,46.93
2023-05-02T21:55:01.259Z,47.01
2023-05-02T21:57:29.095Z,47.22
2023-05-02T21:59:56.202Z,47.30
2023-05-02T22:02:23.832Z,47.38
2023-05-02T22:04:51.068Z,47.68
2023-05-02T22:07:18.147Z,48.04
2023-05-02T22:09:45.334Z,47.95
2023-05-02T22:12:12.338Z,47.89
2023-05-02T22:14:45.438Z,47.95
2023-05-02T22:17:13.656Z,47.96
2023-05-02T22:19:41.977Z,47.70
2023-05-02T22:22:09.064Z,47.82
2023-05-02T22:24:36.143Z,47.81
2023-05-02T22:27:03.489Z,48.15
2023-05-02T22:29:30.635Z,48.03
2023-05-02T22:31:57.776Z,48.17
2023-05-02T22:34:24.981Z,48.18
2023-05-02T22:36:52.207Z,48.56
2023-05-02T22:39:20.466Z,48.50
2023-05-02T22:41:47.452Z,48.93
2023-05-02T22:44:14.594Z,49.48
2023-05-02T22:46:41.670Z,49.44
2023-05-02T22:49:11.987Z,49.38
2023-05-02T22:51:40.372Z,49.63
2023-05-02T22:54:08.538Z,49.57
2023-05-02T22:56:35.723Z,50.05
2023-05-02T22:59:02.893Z,50.20
2023-05-02T23:01:30.146Z,50.54
2023-05-02T23:03:57.450Z,50.60
2023-05-02T23:06:24.677Z,51.37
2023-05-02T23:08:51.778Z,51.68
2023-05-02T23:11:18.995Z,52.22
2023-05-02T23:13:46.100Z,52.05
2023-05-02T23:16:13.233Z,51.90
2023-05-02T23:18:40.428Z,51.69
2023-05-02T23:21:14.297Z,51.94
2023-05-02T23:23:41.922Z,52.09
2023-05-02T23:26:10.675Z,52.10
2023-05-02T23:28:37.718Z,52.30
2023-05-02T23:31:05.472Z,52.37
2023-05-02T23:33:34.443Z,52.37
2023-05-02T23:36:02.564Z,52.00
2023-05-02T23:38:29.677Z,52.06
2023-05-02T23:40:57.093Z,52.84
2023-05-02T23:43:24.314Z,52.91
2023-05-02T23:45:51.554Z,53.04
2023-05-02T23:48:18.812Z,53.03
2023-05-02T23:50:45.863Z,53.24
2023-05-02T23:53:13.048Z,54.38
2023-05-02T23:55:40.221Z,54.31
2023-05-02T23:58:07.463Z,55.19
